sensor_id;sensor_type;location;lat;lon;timestamp;temperature;humidity
52275;DHT22;38228;50.940;4.024;2024-01-25T00:00:56;8.90;99.90
52275;DHT22;38228;50.940;4.024;2024-01-25T00:03:22;8.80;99.90
52275;DHT22;38228;50.940;4.024;2024-01-25T00:05:48;8.80;99.90
52275;DHT22;38228;50.940;4.024;2024-01-25T00:08:14;8.90;99.90
52275;DHT22;38228;50.940;4.024;2024-01-25T00:10:40;8.90;99.90
52275;DHT22;38228;50.940;4.024;2024-01-25T00:13:05;8.90;99.90
52275;DHT22;38228;50.940;4.024;2024-01-25T00:15:31;8.80;99.90
52275;DHT22;38228;50.940;4.024;2024-01-25T00:17:57;8.80;99.90
52275;DHT22;38228;50.940;4.024;2024-01-25T00:20:22;8.70;99.90
52275;DHT22;38228;50.940;4.024;2024-01-25T00:22:48;8.70;99.90
52275;DHT22;38228;50.940;4.024;2024-01-25T00:25:14;8.70;99.90
52275;DHT22;38228;50.940;4.024;2024-01-25T00:27:39;8.70;99.90
52275;DHT22;38228;50.940;4.024;2024-01-25T00:30:06;8.70;99.90
52275;DHT22;38228;50.940;4.024;2024-01-25T00:32:31;8.60;99.90
52275;DHT22;38228;50.940;4.024;2024-01-25T00:34:57;8.60;99.90
52275;DHT22;38228;50.940;4.024;2024-01-25T00:37:23;8.50;99.90
52275;DHT22;38228;50.940;4.024;2024-01-25T00:39:49;8.40;99.90
52275;DHT22;38228;50.940;4.024;2024-01-25T00:42:16;8.30;99.90
52275;DHT22;38228;50.940;4.024;2024-01-25T00:44:42;8.40;99.90
52275;DHT22;38228;50.940;4.024;2024-01-25T00:47:08;8.30;99.90
52275;DHT22;38228;50.940;4.024;2024-01-25T00:49:35;8.30;99.90
52275;DHT22;38228;50.940;4.024;2024-01-25T00:52:03;8.30;99.90
52275;DHT22;38228;50.940;4.024;2024-01-25T00:54:29;8.30;99.90
52275;DHT22;38228;50.940;4.024;2024-01-25T00:56:55;8.30;99.90
52275;DHT22;38228;50.940;4.024;2024-01-25T00:59:21;8.20;99.90
52275;DHT22;38228;50.940;4.024;2024-01-25T01:01:47;8.10;99.90
52275;DHT22;38228;50.940;4.024;2024-01-25T01:04:14;8.10;99.90
52275;DHT22;38228;50.940;4.024;2024-01-25T01:06:40;7.90;99.90
52275;DHT22;38228;50.940;4.024;2024-01-25T01:09:06;7.90;99.90
52275;DHT22;38228;50.940;4.024;2024-01-25T01:11:33;7.90;99.90
52275;DHT22;38228;50.940;4.024;2024-01-25T01:13:58;7.90;99.90
52275;DHT22;38228;50.940;4.024;2024-01-25T01:16:24;7.90;99.90
52275;DHT22;38228;50.940;4.024;2024-01-25T01:18:50;7.80;99.90
52275;DHT22;38228;50.940;4.024;2024-01-25T01:21:16;7.80;99.90
52275;DHT22;38228;50.940;4.024;2024-01-25T01:23:41;7.80;99.90
52275;DHT22;38228;50.940;4.024;2024-01-25T01:26:07;7.80;99.90
52275;DHT22;38228;50.940;4.024;2024-01-25T01:28:33;7.80;99.90
52275;DHT22;38228;50.940;4.024;2024-01-25T01:30:58;7.90;99.90
52275;DHT22;38228;50.940;4.024;2024-01-25T01:33:24;7.80;99.90
52275;DHT22;38228;50.940;4.024;2024-01-25T01:35:50;7.80;99.90
52275;DHT22;38228;50.940;4.024;2024-01-25T01:38:15;7.70;99.90
52275;DHT22;38228;50.940;4.024;2024-01-25T01:40:41;7.60;99.90
52275;DHT22;38228;50.940;4.024;2024-01-25T01:43:18;7.50;99.90
52275;DHT22;38228;50.940;4.024;2024-01-25T01:45:44;7.50;99.90
52275;DHT22;38228;50.940;4.024;2024-01-25T01:48:09;7.40;99.90
52275;DHT22;38228;50.940;4.024;2024-01-25T01:50:35;7.50;99.90
52275;DHT22;38228;50.940;4.024;2024-01-25T01:53:01;7.40;99.90
52275;DHT22;38228;50.940;4.024;2024-01-25T01:55:27;7.50;99.90
52275;DHT22;38228;50.940;4.024;2024-01-25T01:57:53;7.60;99.90
52275;DHT22;38228;50.940;4.024;2024-01-25T02:00:20;7.60;99.90
52275;DHT22;38228;50.940;4.024;2024-01-25T02:02:46;7.50;99.90
52275;DHT22;38228;50.940;4.024;2024-01-25T02:05:12;7.50;99.90
52275;DHT22;38228;50.940;4.024;2024-01-25T02:07:39;7.40;99.90
52275;DHT22;38228;50.940;4.024;2024-01-25T02:10:07;7.30;99.90
52275;DHT22;38228;50.940;4.024;2024-01-25T02:12:32;7.30;99.90
52275;DHT22;38228;50.940;4.024;2024-01-25T02:14:58;7.30;99.90
52275;DHT22;38228;50.940;4.024;2024-01-25T02:17:24;7.30;99.90
52275;DHT22;38228;50.940;4.024;2024-01-25T02:19:49;7.20;99.90
52275;DHT22;38228;50.940;4.024;2024-01-25T02:22:18;7.10;99.90
52275;DHT22;38228;50.940;4.024;2024-01-25T02:24:44;7.10;99.90
52275;DHT22;38228;50.940;4.024;2024-01-25T02:27:09;7.00;99.90
52275;DHT22;38228;50.940;4.024;2024-01-25T02:29:35;7.00;99.90
52275;DHT22;38228;50.940;4.024;2024-01-25T02:32:01;7.00;99.90
52275;DHT22;38228;50.940;4.024;2024-01-25T02:34:27;7.00;99.90
52275;DHT22;38228;50.940;4.024;2024-01-25T02:36:52;7.00;99.90
52275;DHT22;38228;50.940;4.024;2024-01-25T02:39:18;7.10;99.90
52275;DHT22;38228;50.940;4.024;2024-01-25T02:41:44;7.10;99.90
52275;DHT22;38228;50.940;4.024;2024-01-25T02:44:11;7.00;99.90
52275;DHT22;38228;50.940;4.024;2024-01-25T02:46:37;6.90;99.90
52275;DHT22;38228;50.940;4.024;2024-01-25T02:49:03;7.00;99.90
52275;DHT22;38228;50.940;4.024;2024-01-25T02:51:29;7.00;99.90
52275;DHT22;38228;50.940;4.024;2024-01-25T02:53:55;7.00;99.90
52275;DHT22;38228;50.940;4.024;2024-01-25T02:56:21;7.00;99.90
52275;DHT22;38228;50.940;4.024;2024-01-25T02:58:46;6.90;99.90
52275;DHT22;38228;50.940;4.024;2024-01-25T03:01:12;6.80;99.90
52275;DHT22;38228;50.940;4.024;2024-01-25T03:03:38;6.70;99.90
52275;DHT22;38228;50.940;4.024;2024-01-25T03:06:06;6.70;99.90
52275;DHT22;38228;50.940;4.024;2024-01-25T03:08:32;6.80;99.90
52275;DHT22;38228;50.940;4.024;2024-01-25T03:10:57;6.90;99.90
52275;DHT22;38228;50.940;4.024;2024-01-25T03:13:23;6.90;99.90
52275;DHT22;38228;50.940;4.024;2024-01-25T03:15:49;6.80;99.90
52275;DHT22;38228;50.940;4.024;2024-01-25T03:18:14;6.80;99.90
52275;DHT22;38228;50.940;4.024;2024-01-25T03:20:40;6.70;99.90
52275;DHT22;38228;50.940;4.024;2024-01-25T03:23:06;6.60;99.90
52275;DHT22;38228;50.940;4.024;2024-01-25T03:25:32;6.70;99.90
52275;DHT22;38228;50.940;4.024;2024-01-25T03:27:57;6.80;99.90
52275;DHT22;38228;50.940;4.024;2024-01-25T03:30:23;6.90;99.90
52275;DHT22;38228;50.940;4.024;2024-01-25T03:32:49;6.80;99.90
52275;DHT22;38228;50.940;4.024;2024-01-25T03:35:15;6.90;99.90
52275;DHT22;38228;50.940;4.024;2024-01-25T03:37:40;6.80;99.90
52275;DHT22;38228;50.940;4.024;2024-01-25T03:40:07;6.70;99.90
52275;DHT22;38228;50.940;4.024;2024-01-25T03:42:32;6.60;99.90
52275;DHT22;38228;50.940;4.024;2024-01-25T03:44:58;6.60;99.90
52275;DHT22;38228;50.940;4.024;2024-01-25T03:47:24;6.50;99.90
52275;DHT22;38228;50.940;4.024;2024-01-25T03:49:50;6.50;99.90
52275;DHT22;38228;50.940;4.024;2024-01-25T03:52:15;6.70;99.90
52275;DHT22;38228;50.940;4.024;2024-01-25T03:54:41;6.50;99.90
52275;DHT22;38228;50.940;4.024;2024-01-25T03:57:07;6.40;99.90
52275;DHT22;38228;50.940;4.024;2024-01-25T03:59:32;6.40;99.90
52275;DHT22;38228;50.940;4.024;2024-01-25T04:01:58;6.40;99.90
52275;DHT22;38228;50.940;4.024;2024-01-25T04:04:24;6.50;99.90
52275;DHT22;38228;50.940;4.024;2024-01-25T04:06:49;6.60;99.90
52275;DHT22;38228;50.940;4.024;2024-01-25T04:09:15;6.50;99.90
52275;DHT22;38228;50.940;4.024;2024-01-25T04:11:41;6.20;99.90
52275;DHT22;38228;50.940;4.024;2024-01-25T04:14:07;6.20;99.90
52275;DHT22;38228;50.940;4.024;2024-01-25T04:16:33;6.20;99.90
52275;DHT22;38228;50.940;4.024;2024-01-25T04:18:59;6.20;99.90
52275;DHT22;38228;50.940;4.024;2024-01-25T04:21:26;6.30;99.90
52275;DHT22;38228;50.940;4.024;2024-01-25T04:23:52;6.70;99.90
52275;DHT22;38228;50.940;4.024;2024-01-25T04:26:17;6.50;99.90
52275;DHT22;38228;50.940;4.024;2024-01-25T04:28:43;6.30;99.90
52275;DHT22;38228;50.940;4.024;2024-01-25T04:31:09;6.20;99.90
52275;DHT22;38228;50.940;4.024;2024-01-25T04:33:34;6.20;99.90
52275;DHT22;38228;50.940;4.024;2024-01-25T04:36:00;6.10;99.90
52275;DHT22;38228;50.940;4.024;2024-01-25T04:38:26;6.10;99.90
52275;DHT22;38228;50.940;4.024;2024-01-25T04:40:51;6.10;99.90
52275;DHT22;38228;50.940;4.024;2024-01-25T04:43:17;6.00;99.90
52275;DHT22;38228;50.940;4.024;2024-01-25T04:45:43;5.90;99.90
52275;DHT22;38228;50.940;4.024;2024-01-25T04:48:08;5.90;99.90
52275;DHT22;38228;50.940;4.024;2024-01-25T04:50:34;5.90;99.90
52275;DHT22;38228;50.940;4.024;2024-01-25T04:53:02;5.90;99.90
52275;DHT22;38228;50.940;4.024;2024-01-25T04:55:28;5.90;99.90
52275;DHT22;38228;50.940;4.024;2024-01-25T04:57:53;6.00;99.90
52275;DHT22;38228;50.940;4.024;2024-01-25T05:00:22;6.10;99.90
52275;DHT22;38228;50.940;4.024;2024-01-25T05:02:49;6.10;99.90
52275;DHT22;38228;50.940;4.024;2024-01-25T05:05:15;6.20;99.90
52275;DHT22;38228;50.940;4.024;2024-01-25T05:07:41;6.30;99.90
52275;DHT22;38228;50.940;4.024;2024-01-25T05:10:07;6.20;99.90
52275;DHT22;38228;50.940;4.024;2024-01-25T05:12:33;6.10;99.90
52275;DHT22;38228;50.940;4.024;2024-01-25T05:14:59;6.30;99.90
52275;DHT22;38228;50.940;4.024;2024-01-25T05:17:25;6.40;99.90
52275;DHT22;38228;50.940;4.024;2024-01-25T05:19:51;6.40;99.90
52275;DHT22;38228;50.940;4.024;2024-01-25T05:22:16;6.20;99.90
52275;DHT22;38228;50.940;4.024;2024-01-25T05:24:42;6.20;99.90
52275;DHT22;38228;50.940;4.024;2024-01-25T05:27:09;6.20;99.90
52275;DHT22;38228;50.940;4.024;2024-01-25T05:29:35;6.10;99.90
52275;DHT22;38228;50.940;4.024;2024-01-25T05:32:00;6.10;99.90
52275;DHT22;38228;50.940;4.024;2024-01-25T05:34:26;6.30;99.90
52275;DHT22;38228;50.940;4.024;2024-01-25T05:36:52;6.50;99.90
52275;DHT22;38228;50.940;4.024;2024-01-25T05:39:18;6.50;99.90
52275;DHT22;38228;50.940;4.024;2024-01-25T05:41:44;6.40;99.90
52275;DHT22;38228;50.940;4.024;2024-01-25T05:44:13;6.30;99.90
52275;DHT22;38228;50.940;4.024;2024-01-25T05:46:38;6.20;99.90
52275;DHT22;38228;50.940;4.024;2024-01-25T05:49:04;6.20;99.90
52275;DHT22;38228;50.940;4.024;2024-01-25T05:51:30;6.20;99.90
52275;DHT22;38228;50.940;4.024;2024-01-25T05:53:55;6.20;99.90
52275;DHT22;38228;50.940;4.024;2024-01-25T05:56:21;6.10;99.90
52275;DHT22;38228;50.940;4.024;2024-01-25T05:58:47;6.20;99.90
52275;DHT22;38228;50.940;4.024;2024-01-25T06:01:13;6.10;99.90
52275;DHT22;38228;50.940;4.024;2024-01-25T06:03:39;6.10;99.90
52275;DHT22;38228;50.940;4.024;2024-01-25T06:06:04;6.00;99.90
52275;DHT22;38228;50.940;4.024;2024-01-25T06:08:33;6.00;99.90
52275;DHT22;38228;50.940;4.024;2024-01-25T06:10:59;6.10;99.90
52275;DHT22;38228;50.940;4.024;2024-01-25T06:13:24;6.10;99.90
52275;DHT22;38228;50.940;4.024;2024-01-25T06:15:50;6.10;99.90
52275;DHT22;38228;50.940;4.024;2024-01-25T06:18:16;6.00;99.90
52275;DHT22;38228;50.940;4.024;2024-01-25T06:20:41;6.00;99.90
52275;DHT22;38228;50.940;4.024;2024-01-25T06:23:07;6.00;99.90
52275;DHT22;38228;50.940;4.024;2024-01-25T06:25:33;6.00;99.90
52275;DHT22;38228;50.940;4.024;2024-01-25T06:28:00;6.20;99.90
52275;DHT22;38228;50.940;4.024;2024-01-25T06:30:26;6.10;99.90
52275;DHT22;38228;50.940;4.024;2024-01-25T06:32:52;6.10;99.90
52275;DHT22;38228;50.940;4.024;2024-01-25T06:35:17;6.10;99.90
52275;DHT22;38228;50.940;4.024;2024-01-25T06:37:43;6.10;99.90
52275;DHT22;38228;50.940;4.024;2024-01-25T06:40:09;6.10;99.90
52275;DHT22;38228;50.940;4.024;2024-01-25T06:42:35;6.20;99.90
52275;DHT22;38228;50.940;4.024;2024-01-25T06:45:00;6.20;99.90
52275;DHT22;38228;50.940;4.024;2024-01-25T06:47:26;6.20;99.90
52275;DHT22;38228;50.940;4.024;2024-01-25T06:49:52;6.20;99.90
52275;DHT22;38228;50.940;4.024;2024-01-25T06:52:18;6.10;99.90
52275;DHT22;38228;50.940;4.024;2024-01-25T06:54:44;6.20;99.90
52275;DHT22;38228;50.940;4.024;2024-01-25T06:57:10;6.10;99.90
52275;DHT22;38228;50.940;4.024;2024-01-25T06:59:36;6.00;99.90
52275;DHT22;38228;50.940;4.024;2024-01-25T07:02:02;6.10;99.90
52275;DHT22;38228;50.940;4.024;2024-01-25T07:04:29;6.10;99.90
52275;DHT22;38228;50.940;4.024;2024-01-25T07:06:55;6.00;99.90
52275;DHT22;38228;50.940;4.024;2024-01-25T07:09:20;6.00;99.90
52275;DHT22;38228;50.940;4.024;2024-01-25T07:11:46;6.00;99.90
52275;DHT22;38228;50.940;4.024;2024-01-25T07:14:12;6.00;99.90
52275;DHT22;38228;50.940;4.024;2024-01-25T07:16:38;6.10;99.90
52275;DHT22;38228;50.940;4.024;2024-01-25T07:19:04;6.10;99.90
52275;DHT22;38228;50.940;4.024;2024-01-25T07:21:30;6.30;99.90
52275;DHT22;38228;50.940;4.024;2024-01-25T07:24:01;6.20;99.90
52275;DHT22;38228;50.940;4.024;2024-01-25T07:26:27;6.30;99.90
52275;DHT22;38228;50.940;4.024;2024-01-25T07:28:53;6.20;99.90
52275;DHT22;38228;50.940;4.024;2024-01-25T07:31:26;6.20;99.90
52275;DHT22;38228;50.940;4.024;2024-01-25T07:33:53;6.30;99.90
52275;DHT22;38228;50.940;4.024;2024-01-25T07:36:20;6.20;99.90
52275;DHT22;38228;50.940;4.024;2024-01-25T07:38:46;6.30;99.90
52275;DHT22;38228;50.940;4.024;2024-01-25T07:41:13;6.30;99.90
52275;DHT22;38228;50.940;4.024;2024-01-25T07:43:38;6.30;99.90
52275;DHT22;38228;50.940;4.024;2024-01-25T07:46:04;6.30;99.90
52275;DHT22;38228;50.940;4.024;2024-01-25T07:48:30;6.30;99.90
52275;DHT22;38228;50.940;4.024;2024-01-25T07:50:56;6.30;99.90
52275;DHT22;38228;50.940;4.024;2024-01-25T07:53:22;6.20;99.90
52275;DHT22;38228;50.940;4.024;2024-01-25T07:55:47;6.20;99.90
52275;DHT22;38228;50.940;4.024;2024-01-25T07:58:15;6.30;99.90
52275;DHT22;38228;50.940;4.024;2024-01-25T08:00:40;6.40;99.90
52275;DHT22;38228;50.940;4.024;2024-01-25T08:03:08;6.40;99.90
52275;DHT22;38228;50.940;4.024;2024-01-25T08:05:33;6.10;99.90
52275;DHT22;38228;50.940;4.024;2024-01-25T08:07:59;6.20;99.90
52275;DHT22;38228;50.940;4.024;2024-01-25T08:10:25;6.20;99.90
52275;DHT22;38228;50.940;4.024;2024-01-25T08:12:50;6.30;99.90
52275;DHT22;38228;50.940;4.024;2024-01-25T08:15:16;6.50;99.90
52275;DHT22;38228;50.940;4.024;2024-01-25T08:17:42;6.70;99.90
52275;DHT22;38228;50.940;4.024;2024-01-25T08:20:09;6.80;99.90
52275;DHT22;38228;50.940;4.024;2024-01-25T08:22:36;6.70;99.90
52275;DHT22;38228;50.940;4.024;2024-01-25T08:25:02;6.60;99.90
52275;DHT22;38228;50.940;4.024;2024-01-25T08:27:29;6.70;99.90
52275;DHT22;38228;50.940;4.024;2024-01-25T08:29:55;6.70;99.90
52275;DHT22;38228;50.940;4.024;2024-01-25T08:32:21;6.80;99.90
52275;DHT22;38228;50.940;4.024;2024-01-25T08:34:46;6.80;99.90
52275;DHT22;38228;50.940;4.024;2024-01-25T08:37:12;6.70;99.90
52275;DHT22;38228;50.940;4.024;2024-01-25T08:39:38;6.70;99.90
52275;DHT22;38228;50.940;4.024;2024-01-25T08:42:04;6.80;99.90
52275;DHT22;38228;50.940;4.024;2024-01-25T08:44:32;6.70;99.90
52275;DHT22;38228;50.940;4.024;2024-01-25T08:46:58;6.80;99.90
52275;DHT22;38228;50.940;4.024;2024-01-25T08:49:23;6.90;99.90
52275;DHT22;38228;50.940;4.024;2024-01-25T08:51:49;6.90;99.90
52275;DHT22;38228;50.940;4.024;2024-01-25T08:54:15;6.90;99.90
52275;DHT22;38228;50.940;4.024;2024-01-25T08:56:41;7.00;99.90
52275;DHT22;38228;50.940;4.024;2024-01-25T08:59:07;7.10;99.90
52275;DHT22;38228;50.940;4.024;2024-01-25T09:01:33;7.00;99.90
52275;DHT22;38228;50.940;4.024;2024-01-25T09:03:58;7.10;99.90
52275;DHT22;38228;50.940;4.024;2024-01-25T09:06:29;7.10;99.90
52275;DHT22;38228;50.940;4.024;2024-01-25T09:08:55;7.10;99.90
52275;DHT22;38228;50.940;4.024;2024-01-25T09:11:21;7.30;99.90
52275;DHT22;38228;50.940;4.024;2024-01-25T09:13:50;7.30;99.90
52275;DHT22;38228;50.940;4.024;2024-01-25T09:16:16;7.50;99.90
52275;DHT22;38228;50.940;4.024;2024-01-25T09:18:42;7.40;99.90
52275;DHT22;38228;50.940;4.024;2024-01-25T09:21:08;7.40;99.90
52275;DHT22;38228;50.940;4.024;2024-01-25T09:23:33;7.40;99.90
52275;DHT22;38228;50.940;4.024;2024-01-25T09:25:59;7.50;99.90
52275;DHT22;38228;50.940;4.024;2024-01-25T09:28:25;7.40;99.90
52275;DHT22;38228;50.940;4.024;2024-01-25T09:30:51;7.60;99.90
52275;DHT22;38228;50.940;4.024;2024-01-25T09:33:17;7.70;99.90
52275;DHT22;38228;50.940;4.024;2024-01-25T09:35:43;7.80;99.90
52275;DHT22;38228;50.940;4.024;2024-01-25T09:38:12;7.80;99.90
52275;DHT22;38228;50.940;4.024;2024-01-25T09:40:38;7.90;99.90
52275;DHT22;38228;50.940;4.024;2024-01-25T09:43:04;7.90;99.90
52275;DHT22;38228;50.940;4.024;2024-01-25T09:45:31;7.90;99.90
52275;DHT22;38228;50.940;4.024;2024-01-25T09:47:57;7.90;99.90
52275;DHT22;38228;50.940;4.024;2024-01-25T09:50:23;8.10;99.90
52275;DHT22;38228;50.940;4.024;2024-01-25T09:52:54;8.10;99.90
52275;DHT22;38228;50.940;4.024;2024-01-25T09:55:26;8.20;99.90
52275;DHT22;38228;50.940;4.024;2024-01-25T09:57:55;8.20;99.90
52275;DHT22;38228;50.940;4.024;2024-01-25T10:00:24;8.30;99.90
52275;DHT22;38228;50.940;4.024;2024-01-25T10:02:50;8.50;99.90
52275;DHT22;38228;50.940;4.024;2024-01-25T10:05:19;8.40;99.90
52275;DHT22;38228;50.940;4.024;2024-01-25T10:07:45;8.40;99.90
52275;DHT22;38228;50.940;4.024;2024-01-25T10:10:12;8.40;99.90
52275;DHT22;38228;50.940;4.024;2024-01-25T10:12:41;8.30;99.90
52275;DHT22;38228;50.940;4.024;2024-01-25T10:15:07;8.40;99.90
52275;DHT22;38228;50.940;4.024;2024-01-25T10:17:33;8.50;99.90
52275;DHT22;38228;50.940;4.024;2024-01-25T10:19:59;8.40;99.90
52275;DHT22;38228;50.940;4.024;2024-01-25T10:22:25;8.50;99.90
52275;DHT22;38228;50.940;4.024;2024-01-25T10:24:51;8.60;99.90
52275;DHT22;38228;50.940;4.024;2024-01-25T10:27:18;8.60;99.90
52275;DHT22;38228;50.940;4.024;2024-01-25T10:29:44;8.60;99.90
52275;DHT22;38228;50.940;4.024;2024-01-25T10:32:10;8.70;99.90
52275;DHT22;38228;50.940;4.024;2024-01-25T10:34:37;8.70;99.90
52275;DHT22;38228;50.940;4.024;2024-01-25T10:37:06;8.80;99.90
52275;DHT22;38228;50.940;4.024;2024-01-25T10:39:33;8.80;99.90
52275;DHT22;38228;50.940;4.024;2024-01-25T10:42:00;8.70;99.90
52275;DHT22;38228;50.940;4.024;2024-01-25T10:44:26;8.80;99.90
52275;DHT22;38228;50.940;4.024;2024-01-25T10:46:52;8.90;99.90
52275;DHT22;38228;50.940;4.024;2024-01-25T10:49:20;9.10;99.90
52275;DHT22;38228;50.940;4.024;2024-01-25T10:51:46;9.10;99.90
52275;DHT22;38228;50.940;4.024;2024-01-25T10:54:13;9.20;99.90
52275;DHT22;38228;50.940;4.024;2024-01-25T10:56:42;9.30;99.90
52275;DHT22;38228;50.940;4.024;2024-01-25T10:59:10;9.30;99.90
52275;DHT22;38228;50.940;4.024;2024-01-25T11:01:36;9.40;99.90
52275;DHT22;38228;50.940;4.024;2024-01-25T11:04:02;9.40;99.90
52275;DHT22;38228;50.940;4.024;2024-01-25T11:06:28;9.30;99.90
52275;DHT22;38228;50.940;4.024;2024-01-25T11:09:07;9.40;99.90
52275;DHT22;38228;50.940;4.024;2024-01-25T11:11:35;9.50;99.90
52275;DHT22;38228;50.940;4.024;2024-01-25T11:14:02;9.50;99.90
52275;DHT22;38228;50.940;4.024;2024-01-25T11:16:30;9.50;99.90
52275;DHT22;38228;50.940;4.024;2024-01-25T11:18:58;9.70;99.90
52275;DHT22;38228;50.940;4.024;2024-01-25T11:21:41;9.80;99.90
52275;DHT22;38228;50.940;4.024;2024-01-25T11:24:12;9.80;99.90
52275;DHT22;38228;50.940;4.024;2024-01-25T11:26:39;9.80;99.90
52275;DHT22;38228;50.940;4.024;2024-01-25T11:29:05;10.00;99.90
52275;DHT22;38228;50.940;4.024;2024-01-25T11:31:31;10.00;99.90
52275;DHT22;38228;50.940;4.024;2024-01-25T11:34:02;10.00;99.90
52275;DHT22;38228;50.940;4.024;2024-01-25T11:36:28;10.00;99.90
52275;DHT22;38228;50.940;4.024;2024-01-25T11:38:54;9.90;99.90
52275;DHT22;38228;50.940;4.024;2024-01-25T11:41:20;10.00;99.90
52275;DHT22;38228;50.940;4.024;2024-01-25T11:43:50;10.00;99.90
52275;DHT22;38228;50.940;4.024;2024-01-25T11:46:16;10.10;99.90
52275;DHT22;38228;50.940;4.024;2024-01-25T11:48:42;9.90;99.90
52275;DHT22;38228;50.940;4.024;2024-01-25T11:51:10;10.00;99.90
52275;DHT22;38228;50.940;4.024;2024-01-25T11:53:39;10.00;99.90
52275;DHT22;38228;50.940;4.024;2024-01-25T11:56:07;10.30;99.90
52275;DHT22;38228;50.940;4.024;2024-01-25T11:58:34;10.30;99.90
52275;DHT22;38228;50.940;4.024;2024-01-25T12:01:03;10.30;99.90
52275;DHT22;38228;50.940;4.024;2024-01-25T12:03:32;10.30;99.90
52275;DHT22;38228;50.940;4.024;2024-01-25T12:05:58;10.30;99.90
52275;DHT22;38228;50.940;4.024;2024-01-25T12:08:24;10.40;99.90
52275;DHT22;38228;50.940;4.024;2024-01-25T12:10:50;10.30;99.90
52275;DHT22;38228;50.940;4.024;2024-01-25T12:13:16;10.50;99.90
52275;DHT22;38228;50.940;4.024;2024-01-25T12:15:42;10.60;99.90
52275;DHT22;38228;50.940;4.024;2024-01-25T12:18:08;10.60;99.90
52275;DHT22;38228;50.940;4.024;2024-01-25T12:20:36;10.50;99.90
52275;DHT22;38228;50.940;4.024;2024-01-25T12:23:02;10.50;99.90
52275;DHT22;38228;50.940;4.024;2024-01-25T12:25:28;10.60;99.90
52275;DHT22;38228;50.940;4.024;2024-01-25T12:27:53;10.50;99.90
52275;DHT22;38228;50.940;4.024;2024-01-25T12:30:19;10.70;99.90
52275;DHT22;38228;50.940;4.024;2024-01-25T12:32:48;10.70;99.90
52275;DHT22;38228;50.940;4.024;2024-01-25T12:35:15;10.80;99.90
52275;DHT22;38228;50.940;4.024;2024-01-25T12:37:40;10.60;99.90
52275;DHT22;38228;50.940;4.024;2024-01-25T12:40:06;10.90;99.90
52275;DHT22;38228;50.940;4.024;2024-01-25T12:42:33;10.80;99.90
52275;DHT22;38228;50.940;4.024;2024-01-25T12:44:59;10.80;99.90
52275;DHT22;38228;50.940;4.024;2024-01-25T13:18:55;11.10;99.90
52275;DHT22;38228;50.940;4.024;2024-01-25T13:21:20;11.00;99.90
52275;DHT22;38228;50.940;4.024;2024-01-25T13:23:48;10.90;99.90
52275;DHT22;38228;50.940;4.024;2024-01-25T13:26:13;11.00;99.90
52275;DHT22;38228;50.940;4.024;2024-01-25T13:28:41;11.20;99.90
52275;DHT22;38228;50.940;4.024;2024-01-25T13:31:06;11.10;99.90
52275;DHT22;38228;50.940;4.024;2024-01-25T13:33:32;11.20;99.90
52275;DHT22;38228;50.940;4.024;2024-01-25T13:35:58;11.30;99.90
52275;DHT22;38228;50.940;4.024;2024-01-25T13:38:23;11.20;99.90
52275;DHT22;38228;50.940;4.024;2024-01-25T13:40:50;11.30;99.90
52275;DHT22;38228;50.940;4.024;2024-01-25T13:43:16;11.40;99.90
52275;DHT22;38228;50.940;4.024;2024-01-25T13:45:42;11.50;99.90
52275;DHT22;38228;50.940;4.024;2024-01-25T13:48:10;11.40;99.90
52275;DHT22;38228;50.940;4.024;2024-01-25T13:50:35;11.40;99.90
52275;DHT22;38228;50.940;4.024;2024-01-25T13:53:01;11.40;99.90
52275;DHT22;38228;50.940;4.024;2024-01-25T13:55:27;11.40;99.90
52275;DHT22;38228;50.940;4.024;2024-01-25T13:57:52;11.40;99.90
52275;DHT22;38228;50.940;4.024;2024-01-25T14:00:18;11.30;99.90
52275;DHT22;38228;50.940;4.024;2024-01-25T14:02:44;11.40;99.90
52275;DHT22;38228;50.940;4.024;2024-01-25T14:05:13;11.50;99.90
52275;DHT22;38228;50.940;4.024;2024-01-25T14:07:39;11.50;99.90
52275;DHT22;38228;50.940;4.024;2024-01-25T14:10:05;11.50;99.90
52275;DHT22;38228;50.940;4.024;2024-01-25T14:12:31;11.50;99.90
52275;DHT22;38228;50.940;4.024;2024-01-25T14:14:57;11.60;99.90
52275;DHT22;38228;50.940;4.024;2024-01-25T14:17:22;11.70;99.90
52275;DHT22;38228;50.940;4.024;2024-01-25T14:19:48;11.70;99.90
52275;DHT22;38228;50.940;4.024;2024-01-25T14:22:14;11.70;99.90
52275;DHT22;38228;50.940;4.024;2024-01-25T14:24:40;11.60;99.90
52275;DHT22;38228;50.940;4.024;2024-01-25T14:27:05;11.50;99.90
52275;DHT22;38228;50.940;4.024;2024-01-25T14:29:31;11.60;99.90
52275;DHT22;38228;50.940;4.024;2024-01-25T14:31:59;11.50;99.90
52275;DHT22;38228;50.940;4.024;2024-01-25T14:34:25;11.60;99.90
52275;DHT22;38228;50.940;4.024;2024-01-25T14:36:51;11.40;99.90
52275;DHT22;38228;50.940;4.024;2024-01-25T14:39:17;11.40;99.90
52275;DHT22;38228;50.940;4.024;2024-01-25T14:41:44;11.50;99.90
52275;DHT22;38228;50.940;4.024;2024-01-25T14:44:10;11.40;99.90
52275;DHT22;38228;50.940;4.024;2024-01-25T14:46:36;11.30;99.90
52275;DHT22;38228;50.940;4.024;2024-01-25T14:49:02;11.40;99.90
52275;DHT22;38228;50.940;4.024;2024-01-25T14:51:28;11.50;99.90
52275;DHT22;38228;50.940;4.024;2024-01-25T14:53:54;11.70;99.90
52275;DHT22;38228;50.940;4.024;2024-01-25T14:56:19;11.60;99.90
52275;DHT22;38228;50.940;4.024;2024-01-25T14:58:45;11.60;99.90
52275;DHT22;38228;50.940;4.024;2024-01-25T15:01:15;11.40;99.90
52275;DHT22;38228;50.940;4.024;2024-01-25T15:03:46;11.40;99.90
52275;DHT22;38228;50.940;4.024;2024-01-25T15:06:13;11.30;99.90
52275;DHT22;38228;50.940;4.024;2024-01-25T15:08:39;11.40;99.90
52275;DHT22;38228;50.940;4.024;2024-01-25T15:11:06;11.40;99.90
52275;DHT22;38228;50.940;4.024;2024-01-25T15:13:32;11.40;99.90
52275;DHT22;38228;50.940;4.024;2024-01-25T15:15:57;11.50;99.90
52275;DHT22;38228;50.940;4.024;2024-01-25T15:18:23;11.60;99.90
52275;DHT22;38228;50.940;4.024;2024-01-25T15:20:49;11.60;99.90
52275;DHT22;38228;50.940;4.024;2024-01-25T15:23:16;11.70;99.90
52275;DHT22;38228;50.940;4.024;2024-01-25T15:25:42;11.80;99.90
52275;DHT22;38228;50.940;4.024;2024-01-25T15:28:08;11.70;99.90
52275;DHT22;38228;50.940;4.024;2024-01-25T15:30:35;11.60;99.90
52275;DHT22;38228;50.940;4.024;2024-01-25T15:33:01;11.60;99.90
52275;DHT22;38228;50.940;4.024;2024-01-25T15:35:28;11.50;99.90
52275;DHT22;38228;50.940;4.024;2024-01-25T15:37:53;11.50;99.90
52275;DHT22;38228;50.940;4.024;2024-01-25T15:40:19;11.50;99.90
52275;DHT22;38228;50.940;4.024;2024-01-25T15:42:46;11.40;99.90
52275;DHT22;38228;50.940;4.024;2024-01-25T15:45:17;11.40;99.90
52275;DHT22;38228;50.940;4.024;2024-01-25T15:47:43;11.50;99.90
52275;DHT22;38228;50.940;4.024;2024-01-25T15:50:09;11.60;99.90
52275;DHT22;38228;50.940;4.024;2024-01-25T15:52:35;11.60;99.90
52275;DHT22;38228;50.940;4.024;2024-01-25T15:55:01;11.60;99.90
52275;DHT22;38228;50.940;4.024;2024-01-25T15:57:29;11.60;99.90
52275;DHT22;38228;50.940;4.024;2024-01-25T15:59:54;11.50;99.90
52275;DHT22;38228;50.940;4.024;2024-01-25T16:02:20;11.40;99.90
52275;DHT22;38228;50.940;4.024;2024-01-25T16:04:46;11.30;99.90
52275;DHT22;38228;50.940;4.024;2024-01-25T16:07:11;11.30;99.90